createdAt,value
2024-02-29T00:03:53.623Z,52.00
2024-02-29T00:08:56.925Z,50.00
2024-02-29T00:14:00.134Z,49.00
2024-02-29T00:24:08.756Z,46.00
2024-02-29T00:29:11.995Z,43.00
2024-02-29T00:34:15.725Z,45.33
2024-02-29T00:39:20.038Z,40.00
2024-02-29T00:44:24.351Z,46.00
2024-02-29T00:49:27.691Z,49.00
2024-02-29T00:54:31.015Z,47.50
2024-02-29T00:59:34.727Z,51.00
2024-02-29T01:04:39.321Z,48.00
2024-02-29T01:09:42.889Z,48.00
2024-02-29T01:14:46.038Z,49.50
2024-02-29T01:19:49.224Z,48.00
2024-02-29T01:24:53.426Z,50.00
2024-02-29T01:29:56.666Z,49.00
2024-02-29T01:35:00.706Z,49.00
2024-02-29T01:40:05.564Z,46.00
2024-02-29T01:45:09.069Z,10.00
2024-02-29T01:50:14.162Z,50.50
2024-02-29T01:55:17.869Z,54.00
2024-02-29T02:00:21.915Z,52.50
2024-02-29T02:05:28.019Z,55.00
2024-02-29T02:10:31.255Z,48.00
2024-02-29T02:15:35.309Z,52.50
2024-02-29T02:20:39.269Z,48.00
2024-02-29T02:25:43.639Z,48.00
2024-02-29T02:30:47.785Z,49.00
2024-02-29T02:35:52.326Z,47.00
2024-02-29T02:40:55.956Z,45.50
2024-02-29T02:45:59.607Z,44.00
2024-02-29T02:51:03.800Z,40.00
2024-02-29T02:56:07.555Z,43.00
2024-02-29T03:01:11.847Z,44.00
2024-02-29T03:06:15.697Z,42.00
2024-02-29T03:11:19.443Z,38.50
2024-02-29T03:16:25.085Z,40.00
2024-02-29T03:21:29.644Z,42.00
2024-02-29T03:26:33.685Z,42.00
2024-02-29T03:31:37.381Z,40.00
2024-02-29T03:36:40.909Z,44.00
2024-02-29T03:41:44.511Z,41.50
2024-02-29T03:46:48.713Z,39.00
2024-02-29T03:51:52.429Z,38.00
2024-02-29T03:56:56.346Z,39.50
2024-02-29T04:02:01.698Z,43.00
2024-02-29T04:07:06.163Z,42.00
2024-02-29T04:12:10.172Z,41.50
2024-02-29T04:17:13.824Z,40.00
2024-02-29T04:22:17.293Z,40.50
2024-02-29T04:27:20.691Z,40.00
2024-02-29T04:32:23.956Z,41.00
2024-02-29T04:37:27.160Z,44.00
2024-02-29T04:42:30.640Z,43.00
2024-02-29T04:47:36.070Z,42.50
2024-02-29T04:52:39.360Z,40.00
2024-02-29T04:57:42.732Z,41.33
2024-02-29T05:02:46.015Z,41.33
2024-02-29T05:07:49.330Z,42.00
2024-02-29T05:12:52.742Z,43.00
2024-02-29T05:17:55.930Z,40.50
2024-02-29T05:22:59.164Z,41.50
2024-02-29T05:28:03.332Z,44.00
2024-02-29T05:33:06.757Z,44.00
2024-02-29T05:38:10.015Z,41.00
2024-02-29T05:43:16.866Z,37.50
2024-02-29T05:48:20.166Z,44.00
2024-02-29T05:53:24.342Z,44.50
2024-02-29T05:58:33.090Z,42.00
2024-02-29T06:03:39.143Z,44.00
2024-02-29T06:08:42.568Z,44.00
2024-02-29T06:13:45.756Z,45.00
2024-02-29T06:18:49.555Z,46.00
2024-02-29T06:23:56.367Z,44.00
2024-02-29T06:34:04.078Z,39.50
2024-02-29T06:39:09.512Z,36.50
2024-02-29T06:44:13.393Z,40.00
2024-02-29T06:49:17.255Z,41.00
2024-02-29T06:54:20.536Z,44.00
2024-02-29T06:59:23.853Z,44.00
2024-02-29T07:04:27.243Z,43.50
2024-02-29T07:09:30.600Z,42.50
2024-02-29T07:14:36.217Z,41.33
2024-02-29T07:19:40.854Z,40.50
2024-02-29T07:24:44.014Z,45.50
2024-02-29T07:29:47.385Z,41.50
2024-02-29T07:34:50.517Z,39.00
2024-02-29T07:39:53.724Z,45.00
2024-02-29T07:44:57.759Z,40.00
2024-02-29T07:50:00.960Z,44.00
2024-02-29T07:55:07.533Z,40.50
2024-02-29T08:00:13.140Z,42.50
2024-02-29T08:05:16.514Z,49.00
2024-02-29T08:10:20.339Z,40.00
2024-02-29T08:15:23.852Z,40.00
2024-02-29T08:20:27.456Z,44.00
2024-02-29T08:25:32.323Z,41.33
2024-02-29T08:30:35.547Z,43.00
2024-02-29T08:35:40.272Z,40.00
2024-02-29T08:40:43.564Z,42.00
2024-02-29T08:45:46.825Z,44.00
2024-02-29T08:50:50.303Z,43.00
2024-02-29T08:55:53.954Z,46.00
2024-02-29T09:00:57.401Z,42.00
2024-02-29T09:06:01.094Z,46.00
2024-02-29T09:11:05.077Z,46.00
2024-02-29T09:16:09.480Z,43.00
2024-02-29T09:21:12.923Z,44.00
2024-02-29T09:26:18.023Z,47.00
2024-02-29T09:31:21.811Z,44.33
2024-02-29T09:36:26.129Z,43.00
2024-02-29T09:41:41.597Z,45.00
2024-02-29T09:46:52.692Z,47.00
2024-02-29T09:51:56.439Z,45.00
2024-02-29T09:57:00.247Z,44.50
2024-02-29T10:02:05.393Z,41.00
2024-02-29T10:07:08.974Z,45.00
2024-02-29T10:12:17.937Z,42.50
2024-02-29T10:17:21.230Z,46.00
2024-02-29T10:22:24.423Z,44.00
2024-02-29T10:27:28.514Z,44.00
2024-02-29T10:32:33.997Z,48.00
2024-02-29T10:37:37.372Z,43.00
2024-02-29T10:42:42.291Z,43.00
2024-02-29T10:47:54.708Z,46.00
2024-02-29T10:53:09.088Z,47.00
2024-02-29T10:58:23.426Z,42.50
2024-02-29T11:03:27.188Z,44.00
2024-02-29T11:08:38.068Z,44.00
2024-02-29T11:13:42.477Z,44.00
2024-02-29T11:18:45.997Z,43.00
2024-02-29T11:23:50.846Z,41.50
2024-02-29T11:28:54.164Z,44.00
2024-02-29T11:33:57.593Z,43.50
2024-02-29T11:39:01.061Z,45.00
2024-02-29T11:44:04.934Z,45.00
2024-02-29T11:49:08.290Z,45.50
2024-02-29T11:54:14.458Z,41.50
2024-02-29T11:59:19.168Z,42.00
2024-02-29T12:04:22.925Z,45.50
2024-02-29T12:09:26.730Z,48.00
2024-02-29T12:14:30.529Z,48.00
2024-02-29T12:19:33.918Z,45.00
2024-02-29T12:24:37.242Z,44.00
2024-02-29T12:29:43.968Z,42.00
2024-02-29T12:34:47.682Z,45.00
2024-02-29T12:39:56.157Z,48.50
2024-02-29T12:45:00.183Z,45.00
2024-02-29T12:50:09.424Z,50.00
2024-02-29T12:55:13.754Z,46.00
2024-02-29T13:00:25.631Z,42.50
2024-02-29T13:05:28.972Z,48.00
2024-02-29T13:10:32.162Z,43.00
2024-02-29T13:15:35.734Z,47.00
2024-02-29T13:20:39.123Z,50.00
2024-02-29T13:25:42.555Z,51.00
2024-02-29T13:30:45.966Z,47.50
2024-02-29T13:35:49.192Z,41.00
2024-02-29T13:40:52.342Z,50.50
2024-02-29T13:45:55.689Z,48.50
2024-02-29T13:50:59.117Z,46.00
2024-02-29T13:56:02.600Z,45.00
2024-02-29T14:01:08.418Z,50.00
2024-02-29T14:06:15.821Z,51.00
2024-02-29T14:11:19.188Z,46.50
2024-02-29T14:16:22.729Z,44.50
2024-02-29T14:21:26.089Z,49.00
2024-02-29T14:26:29.475Z,47.00
2024-02-29T14:31:32.898Z,42.50
2024-02-29T14:36:37.894Z,42.00
2024-02-29T14:41:45.094Z,50.50
2024-02-29T14:46:49.033Z,46.00
2024-02-29T14:51:56.410Z,42.00
2024-02-29T14:56:59.861Z,46.50
2024-02-29T15:02:03.471Z,44.50
2024-02-29T15:07:07.212Z,45.00
2024-02-29T15:12:10.579Z,44.00
2024-02-29T15:17:14.165Z,50.00
2024-02-29T15:22:17.747Z,46.00
2024-02-29T15:27:21.415Z,46.00
2024-02-29T15:32:24.997Z,48.50
2024-02-29T15:37:29.280Z,46.00
2024-02-29T15:42:33.667Z,47.50
2024-02-29T15:47:36.983Z,49.00
2024-02-29T15:52:40.465Z,46.50
2024-02-29T15:57:43.767Z,48.00
2024-02-29T16:02:46.895Z,48.00
2024-02-29T16:07:51.957Z,51.00
2024-02-29T16:13:00.273Z,52.00
2024-02-29T16:18:03.906Z,51.00
2024-02-29T16:23:07.246Z,53.50
2024-02-29T16:28:10.678Z,51.00
2024-02-29T16:33:14.037Z,54.00
2024-02-29T16:38:17.410Z,49.00
2024-02-29T16:43:22.358Z,26.00
2024-02-29T16:48:26.288Z,51.67
2024-02-29T16:53:29.551Z,55.50
2024-02-29T16:58:33.711Z,48.00
2024-02-29T17:03:37.002Z,56.00
2024-02-29T17:08:40.309Z,53.00
2024-02-29T17:13:44.691Z,55.00
2024-02-29T17:18:48.210Z,55.50
2024-02-29T17:23:54.968Z,54.00
2024-02-29T17:28:58.363Z,55.00
2024-02-29T17:34:04.875Z,58.50
2024-02-29T17:39:08.607Z,59.33
2024-02-29T17:44:13.628Z,59.00
2024-02-29T17:49:17.471Z,59.00
2024-02-29T17:54:21.196Z,62.00
2024-02-29T17:59:24.464Z,60.00
2024-02-29T18:04:29.335Z,63.00
2024-02-29T18:09:33.620Z,58.00
2024-02-29T18:14:36.834Z,60.00
2024-02-29T18:19:40.146Z,64.00
2024-02-29T18:24:43.461Z,68.50
2024-02-29T18:29:47.887Z,59.00
2024-02-29T18:34:51.086Z,69.00
2024-02-29T18:39:55.039Z,68.50
2024-02-29T18:44:59.605Z,68.50
2024-02-29T18:50:04.347Z,70.50
2024-02-29T18:55:11.010Z,68.00
2024-02-29T19:00:16.544Z,96.00
2024-02-29T19:05:19.914Z,89.00
2024-02-29T19:10:24.434Z,84.00
2024-02-29T19:15:27.711Z,75.00
2024-02-29T19:20:30.952Z,79.00
2024-02-29T19:25:34.276Z,69.50
2024-02-29T19:30:38.071Z,76.00
2024-02-29T19:35:41.260Z,82.00
2024-02-29T19:40:44.540Z,80.00
2024-02-29T19:45:47.857Z,77.00
2024-02-29T19:50:52.453Z,77.00
2024-02-29T20:01:04.631Z,80.33
2024-02-29T20:06:08.291Z,79.00
2024-02-29T20:11:11.822Z,94.50
2024-02-29T20:16:15.058Z,85.00
2024-02-29T20:21:18.267Z,104.50
2024-02-29T20:26:21.485Z,102.00
2024-02-29T20:31:25.514Z,105.00
2024-02-29T20:36:30.332Z,90.00
2024-02-29T20:41:34.081Z,93.50
2024-02-29T20:46:37.672Z,92.50
2024-02-29T20:51:41.195Z,88.33
2024-02-29T20:56:44.729Z,83.00
2024-02-29T21:01:48.116Z,87.50
2024-02-29T21:06:51.835Z,72.00
2024-02-29T21:11:55.131Z,82.00
2024-02-29T21:16:58.351Z,88.00
2024-02-29T21:22:01.657Z,90.50
2024-02-29T21:27:07.320Z,101.00
2024-02-29T21:32:10.597Z,94.00
2024-02-29T21:37:13.863Z,83.00
2024-02-29T21:42:17.200Z,89.00
2024-02-29T21:47:20.471Z,88.50
2024-02-29T21:52:24.355Z,91.00
2024-02-29T21:57:27.595Z,90.50
2024-02-29T22:02:30.985Z,90.00
2024-02-29T22:07:34.382Z,86.00
2024-02-29T22:12:39.156Z,78.00
2024-02-29T22:17:42.399Z,77.00
2024-02-29T22:22:45.610Z,77.50
2024-02-29T22:27:49.011Z,75.00
2024-02-29T22:32:52.579Z,77.00
2024-02-29T22:37:55.788Z,87.00
2024-02-29T22:42:59.037Z,75.00
2024-02-29T22:48:02.315Z,76.50
2024-02-29T22:53:05.562Z,77.50
2024-02-29T22:58:08.842Z,76.00
2024-02-29T23:03:12.300Z,76.00
2024-02-29T23:08:15.887Z,80.00
2024-02-29T23:13:19.102Z,72.00
2024-02-29T23:18:22.623Z,77.50
2024-02-29T23:23:26.138Z,80.00
2024-02-29T23:28:29.558Z,75.67
2024-02-29T23:33:33.008Z,81.00
2024-02-29T23:38:36.226Z,71.50
2024-02-29T23:43:39.810Z,81.50
2024-02-29T23:48:43.100Z,85.00
2024-02-29T23:53:46.217Z,74.00
2024-02-29T23:58:49.489Z,80.00
